Time;durP1;ratioP1;P1;durP2;ratioP2;P2;SDS_P1;SDS_P2;PMS_P1;PMS_P2;Temp;Humidity;BMP_temperature;BMP_pressure;BME280_temperature;BME280_humidity;BME280_pressure;Samples;Min_cycle;Max_cycle;Signal;HPM_P1;HPM_P2
2023/08/22 00:02:00;;;;;;;3.65;2.67;;;21.10;98.20;;;;;;5068315;28;20028;-78
2023/08/22 00:04:26;;;;;;;3.75;2.50;;;21.10;98.20;;;;;;5053705;28;20021;-78
2023/08/22 00:06:51;;;;;;;2.40;2.13;;;21.00;98.30;;;;;;5056523;28;20021;-78
2023/08/22 00:09:17;;;;;;;2.58;2.00;;;21.00;98.40;;;;;;5065072;28;20496;-78
2023/08/22 00:11:43;;;;;;;2.45;1.77;;;21.00;98.50;;;;;;5063452;28;20028;-78
2023/08/22 00:14:09;;;;;;;2.50;2.17;;;21.00;98.90;;;;;;5066429;28;20096;-78
2023/08/22 00:16:34;;;;;;;3.22;2.28;;;21.00;98.70;;;;;;5057047;28;20100;-78
2023/08/22 00:19:00;;;;;;;4.55;2.25;;;21.00;98.70;;;;;;5069446;28;20481;-78
2023/08/22 00:21:25;;;;;;;3.38;2.63;;;21.00;98.80;;;;;;5071333;28;20384;-78
2023/08/22 00:23:51;;;;;;;5.20;2.47;;;21.00;98.80;;;;;;5070277;28;20023;-78
2023/08/22 00:26:16;;;;;;;4.55;2.50;;;20.90;98.90;;;;;;5059977;28;20036;-78
2023/08/22 00:28:42;;;;;;;3.92;1.92;;;21.00;99.00;;;;;;5058701;28;20024;-78
2023/08/22 00:31:08;;;;;;;3.00;2.25;;;20.90;99.00;;;;;;5071325;28;20051;-78
2023/08/22 00:33:33;;;;;;;4.82;2.42;;;20.90;99.10;;;;;;5070756;28;20037;-79
2023/08/22 00:35:59;;;;;;;9.02;2.35;;;20.90;99.10;;;;;;5071467;28;20060;-78
2023/08/22 00:38:24;;;;;;;3.50;2.33;;;20.90;99.10;;;;;;5071420;28;20016;-78
2023/08/22 00:40:50;;;;;;;4.55;1.90;;;20.90;99.10;;;;;;5063224;28;20843;-78
2023/08/22 00:43:15;;;;;;;2.75;2.10;;;20.80;99.20;;;;;;5051129;28;20402;-78
2023/08/22 00:45:42;;;;;;;4.20;2.15;;;20.80;99.20;;;;;;5051157;28;20429;-79
2023/08/22 00:48:08;;;;;;;2.92;1.80;;;20.80;99.30;;;;;;5051178;28;20040;-78
2023/08/22 00:50:34;;;;;;;3.72;2.10;;;20.80;99.30;;;;;;5062145;28;20028;-78
2023/08/22 00:53:01;;;;;;;3.55;2.45;;;20.80;99.60;;;;;;5051859;28;20041;-78
2023/08/22 00:55:27;;;;;;;4.07;2.00;;;20.70;99.40;;;;;;5050401;28;20540;-78
2023/08/22 00:57:52;;;;;;;5.47;2.40;;;20.70;99.50;;;;;;5051388;28;20012;-79
2023/08/22 01:00:18;;;;;;;2.63;1.63;;;20.70;99.60;;;;;;5051010;28;20021;-78
2023/08/22 01:02:44;;;;;;;3.08;2.17;;;20.60;99.70;;;;;;5050806;28;20021;-79
2023/08/22 01:05:10;;;;;;;3.83;2.63;;;20.60;99.70;;;;;;5050729;28;20021;-79
2023/08/22 01:07:41;;;;;;;4.45;2.22;;;20.60;99.80;;;;;;5051088;28;20062;-79
2023/08/22 01:10:12;;;;;;;5.40;3.42;;;20.60;99.90;;;;;;5050483;28;20494;-78
2023/08/22 01:12:54;;;;;;;3.30;2.30;;;20.50;99.90;;;;;;5051446;28;20053;-79
2023/08/22 01:15:28;;;;;;;5.55;2.45;;;20.50;99.90;;;;;;5050955;28;20017;-79
2023/08/22 01:17:56;;;;;;;4.70;1.95;;;20.40;99.90;;;;;;5050851;28;20382;-78
2023/08/22 01:20:24;;;;;;;3.25;2.22;;;20.30;99.90;;;;;;5052961;28;20016;-78
2023/08/22 01:22:50;;;;;;;5.07;2.30;;;20.30;99.90;;;;;;5059885;28;20059;-78
2023/08/22 01:25:16;;;;;;;5.03;2.22;;;20.40;99.90;;;;;;5050113;28;20494;-78
2023/08/22 01:28:11;;;;;;;3.63;2.35;;;20.40;99.90;;;;;;5049684;28;20056;-79
2023/08/22 01:31:17;;;;;;;4.57;2.83;;;20.40;99.90;;;;;;5055751;28;20064;-78
2023/08/22 01:33:48;;;;;;;4.25;2.60;;;20.30;99.90;;;;;;5053124;28;20032;-78
2023/08/22 01:36:15;;;;;;;3.47;2.60;;;20.30;99.90;;;;;;5069577;28;20130;-78
2023/08/22 01:38:43;;;;;;;6.05;2.85;;;20.40;99.90;;;;;;5069444;28;20028;-78
2023/08/22 01:41:09;;;;;;;4.18;2.35;;;20.40;99.90;;;;;;5069416;28;20017;-77
2023/08/22 01:43:36;;;;;;;5.63;2.92;;;20.40;99.90;;;;;;5069771;28;20029;-78
2023/08/22 01:46:02;;;;;;;4.53;2.63;;;20.30;99.90;;;;;;5069102;28;20043;-79
2023/08/22 01:48:27;;;;;;;4.75;2.85;;;20.30;99.90;;;;;;5069513;28;20033;-78
2023/08/22 01:50:53;;;;;;;4.07;2.80;;;20.30;99.90;;;;;;5055688;28;20025;-79
2023/08/22 01:53:18;;;;;;;3.72;2.50;;;20.40;99.90;;;;;;5062041;28;20048;-78
2023/08/22 01:55:44;;;;;;;4.30;2.22;;;20.40;99.90;;;;;;5048863;28;20033;-78
2023/08/22 01:58:11;;;;;;;3.85;2.28;;;20.40;99.90;;;;;;5049443;28;20017;-78
2023/08/22 02:00:38;;;;;;;3.00;1.95;;;20.30;99.90;;;;;;5049450;28;20043;-77
2023/08/22 02:03:04;;;;;;;4.85;2.67;;;20.30;99.90;;;;;;5049906;28;20028;-78
2023/08/22 02:05:29;;;;;;;3.50;2.67;;;20.30;99.90;;;;;;5049865;28;20476;-78
2023/08/22 02:07:55;;;;;;;3.45;2.33;;;20.20;99.90;;;;;;5064825;28;20025;-78
2023/08/22 02:10:20;;;;;;;5.13;2.83;;;20.20;99.90;;;;;;5048970;28;20037;-78
2023/08/22 02:12:46;;;;;;;8.23;2.83;;;20.20;99.90;;;;;;5049539;28;20021;-78
2023/08/22 02:15:12;;;;;;;2.75;2.40;;;20.20;99.90;;;;;;5062905;28;20481;-78
2023/08/22 02:17:38;;;;;;;5.95;3.20;;;20.20;99.90;;;;;;5049203;28;20025;-78
2023/08/22 02:20:05;;;;;;;4.82;2.28;;;20.20;99.90;;;;;;5049325;28;20017;-78
2023/08/22 02:22:30;;;;;;;3.42;2.30;;;20.20;99.90;;;;;;5066963;28;20107;-78
2023/08/22 02:24:56;;;;;;;4.05;2.50;;;20.20;99.90;;;;;;5061227;28;20108;-78
2023/08/22 02:27:22;;;;;;;3.47;2.25;;;20.20;99.90;;;;;;5068492;28;20441;-78
2023/08/22 02:29:47;;;;;;;4.72;2.63;;;20.10;99.90;;;;;;5064149;28;20061;-78
2023/08/22 02:32:13;;;;;;;5.10;3.05;;;20.10;99.90;;;;;;5068617;28;20021;-78
2023/08/22 02:34:38;;;;;;;5.05;2.53;;;20.10;99.90;;;;;;5068655;28;20082;-78
2023/08/22 02:37:04;;;;;;;4.82;2.50;;;20.10;99.90;;;;;;5067509;28;20028;-78
2023/08/22 02:39:30;;;;;;;5.40;2.70;;;20.00;99.90;;;;;;5068321;28;20028;-78
2023/08/22 02:41:55;;;;;;;2.80;2.20;;;20.00;99.90;;;;;;5068268;28;20048;-77
2023/08/22 02:44:21;;;;;;;3.60;2.95;;;20.00;99.90;;;;;;5067574;28;20031;-78
2023/08/22 02:46:46;;;;;;;5.03;2.53;;;20.00;99.90;;;;;;5067897;28;20031;-78
2023/08/22 02:49:12;;;;;;;4.78;2.80;;;20.00;99.90;;;;;;5066495;28;20052;-78
2023/08/22 02:51:38;;;;;;;2.42;2.00;;;20.00;99.90;;;;;;5045278;28;20048;-78
2023/08/22 02:54:04;;;;;;;3.67;2.40;;;20.00;99.90;;;;;;5047837;28;20060;-78
2023/08/22 02:56:30;;;;;;;6.65;2.08;;;19.90;99.90;;;;;;5048111;28;20029;-78
2023/08/22 02:58:55;;;;;;;3.60;2.65;;;19.90;99.90;;;;;;5048199;28;20055;-78
2023/08/22 03:01:21;;;;;;;4.65;2.20;;;19.90;99.90;;;;;;5048166;28;20040;-78
2023/08/22 03:03:50;;;;;;;3.08;1.95;;;19.80;99.90;;;;;;5048846;28;20060;-78
2023/08/22 03:06:16;;;;;;;4.63;2.53;;;19.90;99.90;;;;;;5035885;28;20078;-78
2023/08/22 03:08:42;;;;;;;4.80;3.15;;;19.80;99.90;;;;;;5048999;28;20037;-78
2023/08/22 03:11:08;;;;;;;3.42;2.15;;;19.80;99.90;;;;;;5048956;28;20040;-79
2023/08/22 03:13:34;;;;;;;3.88;2.33;;;19.80;99.90;;;;;;5048808;28;20476;-78
2023/08/22 03:16:00;;;;;;;3.30;2.15;;;19.70;99.90;;;;;;5048746;28;20033;-79
2023/08/22 03:18:26;;;;;;;2.72;2.20;;;19.70;99.90;;;;;;5048251;28;20230;-78
2023/08/22 03:20:56;;;;;;;5.10;2.60;;;19.70;99.90;;;;;;5048033;28;20543;-78
2023/08/22 03:23:23;;;;;;;6.65;2.13;;;19.60;99.90;;;;;;5049111;28;20138;-78
2023/08/22 03:25:59;;;;;;;5.18;2.50;;;19.60;99.90;;;;;;5048947;28;20373;-79
2023/08/22 03:28:25;;;;;;;3.55;1.95;;;19.60;99.90;;;;;;5049170;28;20446;-79
2023/08/22 03:30:58;;;;;;;2.25;1.77;;;19.60;99.90;;;;;;5049075;28;20482;-79
2023/08/22 03:33:25;;;;;;;2.78;2.20;;;19.50;99.90;;;;;;5047625;28;20017;-79
2023/08/22 03:35:52;;;;;;;3.53;2.10;;;19.50;99.90;;;;;;5048497;28;20043;-79
2023/08/22 03:38:18;;;;;;;6.13;2.13;;;19.40;99.90;;;;;;5047596;28;20028;-78
2023/08/22 03:40:43;;;;;;;2.45;2.25;;;19.40;99.90;;;;;;5048640;28;20029;-78
2023/08/22 03:43:09;;;;;;;3.92;2.58;;;19.40;99.90;;;;;;5048539;28;20021;-78
2023/08/22 03:45:34;;;;;;;4.55;2.25;;;19.40;99.90;;;;;;5048465;28;20139;-78
2023/08/22 03:48:03;;;;;;;5.45;2.58;;;19.30;99.90;;;;;;5048485;28;20036;-78
2023/08/22 03:50:30;;;;;;;3.47;2.28;;;19.30;99.90;;;;;;5048129;28;20017;-78
2023/08/22 03:52:55;;;;;;;4.15;2.42;;;19.30;99.90;;;;;;5067748;28;20048;-78
2023/08/22 03:55:21;;;;;;;4.07;2.53;;;19.20;99.90;;;;;;5071604;28;20056;-79
2023/08/22 03:57:46;;;;;;;3.58;2.83;;;19.20;99.90;;;;;;5058531;28;20029;-79
2023/08/22 04:00:13;;;;;;;2.80;2.55;;;19.10;99.90;;;;;;5071503;28;20066;-79
2023/08/22 04:02:38;;;;;;;3.10;2.75;;;19.10;99.90;;;;;;5067586;28;20028;-79
2023/08/22 04:05:04;;;;;;;5.75;2.47;;;19.10;99.90;;;;;;5062260;28;20090;-79
2023/08/22 04:07:30;;;;;;;2.95;2.35;;;19.00;99.90;;;;;;5070628;28;20428;-78
2023/08/22 04:09:56;;;;;;;4.28;2.47;;;19.00;99.90;;;;;;5069820;28;20032;-78
2023/08/22 04:12:21;;;;;;;5.45;2.33;;;19.00;99.90;;;;;;5069597;28;20388;-78
2023/08/22 04:14:47;;;;;;;3.20;2.83;;;18.90;99.90;;;;;;5070930;28;20103;-78
2023/08/22 04:17:12;;;;;;;4.20;2.90;;;18.90;99.90;;;;;;5067857;28;20033;-78
2023/08/22 04:19:38;;;;;;;2.88;2.63;;;18.90;99.90;;;;;;5059039;28;20033;-78
2023/08/22 04:22:04;;;;;;;4.15;3.10;;;18.90;99.90;;;;;;5057161;28;20028;-78
2023/08/22 04:24:30;;;;;;;4.22;3.83;;;18.80;99.90;;;;;;5053612;28;20021;-78
2023/08/22 04:26:56;;;;;;;4.07;3.42;;;18.80;99.90;;;;;;5055661;28;20029;-78
2023/08/22 04:29:22;;;;;;;4.32;3.85;;;18.80;99.90;;;;;;5057584;28;20036;-79
2023/08/22 04:31:49;;;;;;;5.65;3.63;;;18.80;99.90;;;;;;5071030;28;20021;-78
2023/08/22 04:34:14;;;;;;;4.88;3.35;;;18.70;99.90;;;;;;5054943;28;20039;-78
2023/08/22 04:36:40;;;;;;;4.07;3.67;;;18.70;99.90;;;;;;5055572;28;20033;-78
2023/08/22 04:39:06;;;;;;;6.53;3.50;;;18.70;99.90;;;;;;5065453;28;20012;-79
2023/08/22 04:41:31;;;;;;;4.82;3.58;;;18.70;99.90;;;;;;5058972;28;20025;-78
2023/08/22 04:43:57;;;;;;;6.65;3.55;;;18.70;99.90;;;;;;5058788;28;20535;-78
2023/08/22 04:46:22;;;;;;;5.13;3.80;;;18.70;99.90;;;;;;5068499;28;20120;-78
2023/08/22 04:48:48;;;;;;;5.10;3.10;;;18.60;99.90;;;;;;5065598;28;20021;-78
2023/08/22 04:51:14;;;;;;;4.72;2.63;;;18.70;99.90;;;;;;5053420;28;20016;-79
2023/08/22 04:53:39;;;;;;;4.72;2.92;;;18.60;99.90;;;;;;5067958;28;20051;-78
2023/08/22 04:56:05;;;;;;;4.07;3.40;;;18.60;99.90;;;;;;5066987;28;20028;-78
2023/08/22 04:58:31;;;;;;;5.82;3.53;;;18.60;99.90;;;;;;5060814;28;20071;-78
2023/08/22 05:00:57;;;;;;;4.47;2.88;;;18.60;99.90;;;;;;5062561;28;20028;-78
2023/08/22 05:03:22;;;;;;;5.13;2.90;;;18.60;99.90;;;;;;5060112;28;20401;-78
2023/08/22 05:05:48;;;;;;;3.90;3.13;;;18.60;99.90;;;;;;5067428;28;20170;-78
2023/08/22 05:08:14;;;;;;;4.82;3.20;;;18.60;99.90;;;;;;5049277;28;20033;-78
2023/08/22 05:10:39;;;;;;;3.45;3.15;;;18.60;99.90;;;;;;5057901;28;20033;-78
2023/08/22 05:13:05;;;;;;;3.95;3.35;;;18.60;99.90;;;;;;5064794;28;20036;-78
2023/08/22 05:15:30;;;;;;;5.88;3.45;;;18.70;99.90;;;;;;5054357;28;20057;-78
2023/08/22 05:17:56;;;;;;;7.57;5.40;;;18.70;99.90;;;;;;5064407;28;20021;-77
2023/08/22 05:20:21;;;;;;;6.25;5.65;;;18.70;99.90;;;;;;5062906;28;21019;-77
2023/08/22 05:22:47;;;;;;;7.47;6.55;;;18.80;99.90;;;;;;5064474;28;20117;-78
2023/08/22 05:25:13;;;;;;;10.23;6.03;;;18.80;99.90;;;;;;5063267;28;20027;-78
2023/08/22 05:27:38;;;;;;;8.60;6.32;;;18.80;99.90;;;;;;5064765;28;20102;-78
2023/08/22 05:30:06;;;;;;;9.70;6.35;;;18.80;99.90;;;;;;5063265;28;20035;-78
2023/08/22 05:32:31;;;;;;;6.72;6.07;;;18.90;99.90;;;;;;5064778;28;20025;-77
2023/08/22 05:34:58;;;;;;;8.75;7.20;;;18.90;99.90;;;;;;5063437;28;20155;-78
2023/08/22 05:37:24;;;;;;;6.95;6.28;;;19.00;99.90;;;;;;5055239;28;20058;-77
2023/08/22 05:39:50;;;;;;;8.90;7.13;;;19.10;99.90;;;;;;5056309;28;20025;-79
2023/08/22 05:42:16;;;;;;;9.55;8.02;;;19.20;99.90;;;;;;5055526;28;20036;-79
2023/08/22 05:44:41;;;;;;;12.50;9.15;;;19.20;99.90;;;;;;5061922;28;20013;-78
2023/08/22 05:47:08;;;;;;;9.85;8.85;;;19.20;99.90;;;;;;5064686;28;20020;-78
2023/08/22 05:49:34;;;;;;;7.90;7.05;;;19.30;99.90;;;;;;5061773;28;20029;-78
2023/08/22 05:52:06;;;;;;;10.13;7.63;;;19.40;99.90;;;;;;5059443;28;20028;-78
2023/08/22 05:54:32;;;;;;;10.75;9.05;;;19.50;99.90;;;;;;5062265;28;20513;-78
2023/08/22 05:56:57;;;;;;;11.25;10.15;;;19.60;99.90;;;;;;5060477;28;20108;-78
2023/08/22 05:59:23;;;;;;;13.65;11.57;;;19.70;99.90;;;;;;5065130;28;20527;-78
2023/08/22 06:01:49;;;;;;;13.00;11.27;;;19.80;99.90;;;;;;5050398;28;20017;-78
2023/08/22 06:04:17;;;;;;;13.27;11.90;;;19.90;99.90;;;;;;5049455;28;20370;-78
2023/08/22 06:06:43;;;;;;;12.38;10.63;;;20.10;99.90;;;;;;5050057;28;20021;-78
2023/08/22 06:09:08;;;;;;;15.07;12.88;;;20.20;99.90;;;;;;5049544;28;20033;-72
2023/08/22 06:11:34;;;;;;;14.60;12.77;;;20.30;99.90;;;;;;5049667;28;20028;-72
2023/08/22 06:14:00;;;;;;;14.05;12.65;;;20.30;99.90;;;;;;5048895;28;20492;-72
2023/08/22 06:16:25;;;;;;;11.70;10.45;;;20.40;99.90;;;;;;5049215;28;20029;-72
2023/08/22 06:18:51;;;;;;;15.38;11.68;;;20.50;99.90;;;;;;5049743;28;20604;-72
2023/08/22 06:21:16;;;;;;;12.23;10.85;;;20.50;99.90;;;;;;5049483;28;20025;-72
2023/08/22 06:23:42;;;;;;;12.38;11.07;;;20.60;99.90;;;;;;5050111;28;20021;-72
2023/08/22 06:26:10;;;;;;;13.32;11.23;;;20.60;99.90;;;;;;5049633;28;20111;-72
2023/08/22 06:28:35;;;;;;;15.02;11.43;;;20.80;99.90;;;;;;5049069;28;20040;-72
2023/08/22 06:31:02;;;;;;;14.52;10.93;;;20.80;99.90;;;;;;5049559;28;20025;-72
2023/08/22 06:33:28;;;;;;;12.50;11.23;;;20.90;99.90;;;;;;5049016;28;20029;-72
2023/08/22 06:35:53;;;;;;;13.25;11.82;;;21.10;99.90;;;;;;5049515;28;20029;-72
2023/08/22 06:38:19;;;;;;;12.10;10.35;;;21.20;99.90;;;;;;5048712;28;20052;-72
2023/08/22 06:40:44;;;;;;;11.93;9.93;;;21.30;99.90;;;;;;5048935;28;20021;-72
2023/08/22 06:43:10;;;;;;;9.50;8.50;;;21.40;99.90;;;;;;5052252;28;20029;-72
2023/08/22 06:45:36;;;;;;;10.70;9.52;;;21.50;99.90;;;;;;5057689;28;20020;-72
2023/08/22 06:48:01;;;;;;;13.30;8.75;;;21.50;99.90;;;;;;5048844;28;20496;-72
2023/08/22 06:50:27;;;;;;;10.68;8.77;;;21.60;99.90;;;;;;5058745;28;20560;-72
2023/08/22 06:52:52;;;;;;;10.65;8.93;;;21.60;99.90;;;;;;5052149;28;20045;-72
2023/08/22 06:55:18;;;;;;;9.02;8.10;;;21.70;99.90;;;;;;5048520;28;20076;-72
2023/08/22 06:57:43;;;;;;;13.70;9.68;;;21.70;99.90;;;;;;5048340;28;20094;-72
2023/08/22 07:00:16;;;;;;;8.85;7.85;;;21.70;99.90;;;;;;5048744;28;20045;-72
2023/08/22 07:02:46;;;;;;;9.05;7.40;;;21.70;99.90;;;;;;5053108;28;20017;-72
2023/08/22 07:05:13;;;;;;;11.57;8.88;;;21.70;99.90;;;;;;5061583;28;20029;-72
2023/08/22 07:07:39;;;;;;;9.30;7.78;;;21.70;99.90;;;;;;5060990;28;20029;-72
2023/08/22 07:10:07;;;;;;;9.23;7.78;;;21.60;99.90;;;;;;5064056;28;20058;-72
2023/08/22 07:12:33;;;;;;;7.78;6.40;;;21.60;99.90;;;;;;5063352;28;20085;-72
2023/08/22 07:14:59;;;;;;;10.77;7.47;;;21.60;99.90;;;;;;5053416;28;20036;-72
2023/08/22 07:17:24;;;;;;;10.73;7.80;;;21.60;99.90;;;;;;5053218;28;20354;-71
2023/08/22 07:19:50;;;;;;;8.00;7.20;;;21.60;99.90;;;;;;5055162;28;20091;-72
2023/08/22 07:22:16;;;;;;;9.20;7.20;;;21.70;99.90;;;;;;5051033;28;20425;-72
2023/08/22 07:24:41;;;;;;;10.60;6.43;;;21.80;99.90;;;;;;5049901;28;20071;-72
2023/08/22 07:27:10;;;;;;;8.90;5.93;;;21.90;99.90;;;;;;5048981;28;20016;-72
2023/08/22 07:29:36;;;;;;;7.30;5.25;;;22.00;99.90;;;;;;5049531;28;20478;-72
2023/08/22 07:32:02;;;;;;;7.53;3.90;;;22.10;99.90;;;;;;5050003;28;20021;-72
2023/08/22 07:34:28;;;;;;;5.20;4.20;;;22.20;99.50;;;;;;5050916;28;20163;-71
2023/08/22 07:36:54;;;;;;;6.80;3.97;;;22.20;99.20;;;;;;5050983;28;20103;-72
2023/08/22 07:39:21;;;;;;;4.15;3.05;;;22.30;99.00;;;;;;5052523;28;20032;-72
2023/08/22 07:41:46;;;;;;;4.63;2.97;;;22.30;98.70;;;;;;5050695;28;20025;-71
2023/08/22 07:44:13;;;;;;;6.40;3.25;;;22.40;98.60;;;;;;5052752;28;20380;-72
2023/08/22 07:46:39;;;;;;;6.65;3.63;;;22.50;97.90;;;;;;5054174;28;20086;-71
2023/08/22 07:49:04;;;;;;;4.35;3.13;;;22.60;97.70;;;;;;5062888;28;20428;-72
2023/08/22 07:51:31;;;;;;;6.70;3.72;;;22.70;97.50;;;;;;5049689;28;20029;-72
2023/08/22 07:53:57;;;;;;;4.00;3.10;;;22.80;97.40;;;;;;5049577;28;20075;-72
2023/08/22 07:56:22;;;;;;;4.40;2.65;;;22.90;97.10;;;;;;5050119;28;20063;-72
2023/08/22 07:58:48;;;;;;;5.53;2.55;;;23.00;97.00;;;;;;5051043;28;20025;-72
2023/08/22 08:01:14;;;;;;;4.28;3.13;;;23.10;96.70;;;;;;5054836;28;20024;-72
2023/08/22 08:03:39;;;;;;;5.00;3.10;;;23.20;96.40;;;;;;5065434;28;20107;-72
2023/08/22 08:06:05;;;;;;;4.35;2.60;;;23.30;95.90;;;;;;5050957;28;20129;-72
2023/08/22 08:08:31;;;;;;;5.60;2.63;;;23.50;95.70;;;;;;5059862;28;20057;-71
2023/08/22 08:10:56;;;;;;;4.50;1.77;;;23.50;95.70;;;;;;5058356;28;20025;-72
2023/08/22 08:13:22;;;;;;;3.05;1.55;;;23.60;95.40;;;;;;5062662;28;20419;-72
2023/08/22 08:15:48;;;;;;;3.58;1.45;;;23.70;94.90;;;;;;5058732;28;20075;-71
2023/08/22 08:18:15;;;;;;;3.40;1.45;;;23.80;94.70;;;;;;5063014;28;20013;-72
2023/08/22 08:20:41;;;;;;;3.90;1.05;;;23.80;94.50;;;;;;5056953;28;20026;-72
2023/08/22 08:23:06;;;;;;;7.05;1.50;;;23.90;94.50;;;;;;5063117;28;20043;-73
2023/08/22 08:25:32;;;;;;;2.85;0.80;;;23.90;94.30;;;;;;5056371;28;20115;-72
2023/08/22 08:27:58;;;;;;;3.40;1.05;;;24.00;94.20;;;;;;5061996;28;20043;-72
2023/08/22 08:30:24;;;;;;;4.10;1.60;;;24.10;93.90;;;;;;5058517;28;20505;-72
2023/08/22 08:32:49;;;;;;;1.65;0.90;;;24.10;93.80;;;;;;5061282;28;20020;-71
2023/08/22 08:35:15;;;;;;;3.03;0.93;;;24.20;93.60;;;;;;5056382;28;20099;-72
2023/08/22 08:37:41;;;;;;;5.72;1.15;;;24.20;93.40;;;;;;5060980;28;20029;-72
2023/08/22 08:40:08;;;;;;;2.60;1.35;;;24.30;93.20;;;;;;5059733;28;20032;-72
2023/08/22 08:42:38;;;;;;;2.83;1.25;;;24.30;92.90;;;;;;5055353;28;20127;-73
2023/08/22 08:45:07;;;;;;;3.33;1.33;;;24.30;92.90;;;;;;5058468;28;20352;-72
2023/08/22 08:47:34;;;;;;;3.38;1.20;;;24.30;92.80;;;;;;5058711;28;20200;-72
2023/08/22 08:50:01;;;;;;;3.13;1.58;;;24.40;92.80;;;;;;5063642;28;20024;-72
2023/08/22 08:52:29;;;;;;;2.63;1.35;;;24.40;92.70;;;;;;5056347;28;20036;-73
2023/08/22 08:54:55;;;;;;;4.68;1.40;;;24.40;92.30;;;;;;5050945;28;20036;-73
2023/08/22 08:57:21;;;;;;;2.42;1.58;;;24.40;92.40;;;;;;5067233;28;20508;-72
2023/08/22 08:59:47;;;;;;;5.32;2.00;;;24.40;92.40;;;;;;5055857;28;20021;-73
2023/08/22 09:02:16;;;;;;;5.97;2.05;;;24.40;92.50;;;;;;5053241;28;20018;-73
2023/08/22 09:04:42;;;;;;;3.95;1.80;;;24.50;92.20;;;;;;5047761;28;20079;-72
2023/08/22 09:07:08;;;;;;;5.55;2.13;;;24.60;92.40;;;;;;5052660;28;20032;-71
2023/08/22 09:09:37;;;;;;;3.83;1.55;;;24.60;92.00;;;;;;5052783;28;20029;-72
2023/08/22 09:12:09;;;;;;;4.47;1.48;;;24.70;91.80;;;;;;5050915;28;20033;-72
2023/08/22 09:14:46;;;;;;;5.75;2.10;;;24.70;91.70;;;;;;5051045;28;20029;-71
2023/08/22 09:17:18;;;;;;;4.65;2.28;;;24.70;91.60;;;;;;5050785;28;20032;-72
2023/08/22 09:19:44;;;;;;;4.85;2.10;;;24.70;91.50;;;;;;5051052;28;20036;-73
2023/08/22 09:22:14;;;;;;;3.65;2.13;;;24.70;91.60;;;;;;5050765;28;20102;-72
2023/08/22 09:24:50;;;;;;;5.25;1.80;;;24.70;91.40;;;;;;5050207;28;20025;-71
2023/08/22 09:27:16;;;;;;;1.75;1.52;;;24.80;91.40;;;;;;5050736;28;20021;-72
2023/08/22 09:29:42;;;;;;;4.10;1.75;;;24.90;90.90;;;;;;5050750;28;20101;-71
2023/08/22 09:32:08;;;;;;;5.20;1.88;;;24.90;91.00;;;;;;5050771;28;20075;-71
2023/08/22 09:34:35;;;;;;;3.45;2.25;;;25.00;90.90;;;;;;5049280;28;20597;-71
2023/08/22 09:37:02;;;;;;;4.82;1.60;;;25.10;90.50;;;;;;5050092;28;20031;-71
2023/08/22 09:39:30;;;;;;;5.25;2.25;;;25.20;90.10;;;;;;5050046;28;20314;-71
2023/08/22 09:41:57;;;;;;;3.70;1.30;;;25.30;89.80;;;;;;5050395;28;20013;-72
2023/08/22 09:44:25;;;;;;;4.80;1.60;;;25.30;90.00;;;;;;5049425;28;20025;-71
2023/08/22 09:46:52;;;;;;;4.25;1.80;;;25.40;89.40;;;;;;5057325;28;20031;-71
2023/08/22 09:49:18;;;;;;;6.03;1.73;;;25.40;89.50;;;;;;5053327;28;20035;-71
2023/08/22 09:51:50;;;;;;;3.17;1.83;;;25.40;89.20;;;;;;5068909;28;20381;-71
2023/08/22 09:54:16;;;;;;;5.40;1.30;;;25.40;89.50;;;;;;5068443;28;20060;-71
2023/08/22 09:56:43;;;;;;;5.78;1.48;;;25.40;89.50;;;;;;5069495;28;20074;-71
2023/08/22 09:59:13;;;;;;;4.80;1.25;;;25.50;89.60;;;;;;5062587;28;20028;-72
2023/08/22 10:01:39;;;;;;;4.80;1.33;;;25.60;89.10;;;;;;5057339;28;20436;-71
2023/08/22 10:04:05;;;;;;;2.90;1.02;;;25.40;87.90;;;;;;5050911;28;20024;-71
2023/08/22 10:06:33;;;;;;;9.43;1.10;;;25.30;88.10;;;;;;5067940;28;20027;-71
2023/08/22 10:09:00;;;;;;;1.65;1.00;;;25.20;88.00;;;;;;5052818;28;20025;-72
2023/08/22 10:11:28;;;;;;;2.80;1.38;;;25.20;87.50;;;;;;5048803;28;20029;-72
2023/08/22 10:13:53;;;;;;;3.15;1.10;;;25.10;86.90;;;;;;5048880;28;20012;-72
2023/08/22 10:16:20;;;;;;;4.43;1.23;;;25.10;87.30;;;;;;5048887;28;20036;-73
2023/08/22 10:18:45;;;;;;;5.22;1.27;;;25.10;88.00;;;;;;5049384;28;20025;-72
2023/08/22 10:21:11;;;;;;;5.07;1.48;;;25.20;87.60;;;;;;5048611;28;20354;-73
2023/08/22 10:23:52;;;;;;;3.72;1.20;;;25.20;86.80;;;;;;5047703;28;20823;-72
2023/08/22 10:26:19;;;;;;;5.53;1.10;;;25.40;86.80;;;;;;5048359;28;20055;-73
2023/08/22 10:29:12;;;;;;;3.22;1.35;;;25.60;86.80;;;;;;5055730;28;20024;-72
2023/08/22 10:31:59;;;;;;;2.50;1.20;;;25.90;86.40;;;;;;5066064;28;20771;-72
2023/08/22 10:34:25;;;;;;;6.07;1.15;;;26.10;85.40;;;;;;5062471;28;20062;-72
2023/08/22 10:37:01;;;;;;;4.72;1.70;;;26.20;84.70;;;;;;5059266;28;20466;-72
2023/08/22 10:39:43;;;;;;;3.60;1.65;;;26.40;84.30;;;;;;5049479;28;20021;-71
2023/08/22 10:42:22;;;;;;;4.13;1.20;;;26.40;83.40;;;;;;5057080;28;20071;-71
2023/08/22 10:44:53;;;;;;;2.75;1.00;;;26.40;82.80;;;;;;5060171;28;20040;-71
2023/08/22 10:47:21;;;;;;;2.60;1.00;;;26.40;82.60;;;;;;5057293;28;20060;-72
2023/08/22 10:49:51;;;;;;;2.08;0.65;;;26.40;81.40;;;;;;5060682;28;20020;-73
2023/08/22 10:52:17;;;;;;;1.92;0.60;;;26.30;80.80;;;;;;5066861;28;20032;-72
2023/08/22 10:55:10;;;;;;;2.40;0.57;;;26.40;80.80;;;;;;5066007;28;20033;-72
2023/08/22 10:57:38;;;;;;;3.05;0.50;;;26.50;80.30;;;;;;5052735;28;20031;-72
2023/08/22 11:00:23;;;;;;;2.90;1.05;;;26.60;79.90;;;;;;5048741;28;20041;-72
2023/08/22 11:02:59;;;;;;;1.92;0.50;;;26.70;79.40;;;;;;5053288;28;20017;-72
2023/08/22 11:05:29;;;;;;;2.28;0.40;;;26.70;78.50;;;;;;5052354;28;20016;-73
2023/08/22 11:07:55;;;;;;;2.72;0.47;;;26.70;78.50;;;;;;5055644;28;20024;-73
2023/08/22 11:10:22;;;;;;;0.50;0.30;;;26.70;78.40;;;;;;5048716;28;20203;-73
2023/08/22 11:12:50;;;;;;;2.30;0.75;;;26.70;78.70;;;;;;5050423;28;20078;-72
2023/08/22 11:15:17;;;;;;;4.82;0.50;;;26.80;79.20;;;;;;5057735;28;20031;-72
2023/08/22 11:17:46;;;;;;;2.28;0.90;;;26.80;79.20;;;;;;5051099;28;20035;-72
2023/08/22 11:20:13;;;;;;;1.20;0.40;;;26.90;78.40;;;;;;5059662;28;20025;-73
2023/08/22 11:22:42;;;;;;;2.13;0.70;;;26.90;78.70;;;;;;5047416;28;20052;-72
2023/08/22 11:25:08;;;;;;;1.60;0.50;;;27.00;78.80;;;;;;5059617;28;20481;-73
2023/08/22 11:27:40;;;;;;;0.85;0.35;;;27.10;78.50;;;;;;5053995;28;20040;-73
2023/08/22 11:30:08;;;;;;;1.00;0.32;;;27.20;78.50;;;;;;5055495;28;20569;-72
2023/08/22 11:32:36;;;;;;;1.00;0.50;;;27.20;78.60;;;;;;5052864;28;20033;-73
2023/08/22 11:35:04;;;;;;;5.20;1.00;;;27.30;78.30;;;;;;5051466;28;20112;-72
2023/08/22 11:37:32;;;;;;;1.38;0.60;;;27.30;78.70;;;;;;5052201;28;20041;-73
2023/08/22 11:39:58;;;;;;;2.85;0.40;;;27.40;77.90;;;;;;5054350;28;20100;-72
2023/08/22 11:42:24;;;;;;;3.08;0.70;;;27.40;78.10;;;;;;5062977;28;20036;-72
2023/08/22 11:45:08;;;;;;;2.80;0.43;;;27.50;78.00;;;;;;5051707;28;20065;-72
2023/08/22 11:47:40;;;;;;;0.90;0.60;;;27.50;77.80;;;;;;5053237;28;20032;-72
2023/08/22 11:50:10;;;;;;;3.30;1.10;;;27.50;77.50;;;;;;5043798;28;20046;-72
2023/08/22 11:52:39;;;;;;;2.10;0.70;;;27.50;76.60;;;;;;5050663;28;20056;-74
2023/08/22 11:55:06;;;;;;;3.03;0.93;;;27.40;76.10;;;;;;5050669;28;20386;-71
2023/08/22 11:57:35;;;;;;;1.20;0.80;;;27.30;75.70;;;;;;5061336;28;20028;-72
2023/08/22 12:00:08;;;;;;;2.58;1.42;;;27.20;75.50;;;;;;5058757;28;20047;-72
2023/08/22 12:02:34;;;;;;;;;;;27.20;75.70;;;;;;5056781;28;20025;-73
2023/08/22 12:05:00;;;;;;;2.13;0.95;;;27.00;76.30;;;;;;5054552;28;20353;-72
2023/08/22 12:07:26;;;;;;;2.75;1.10;;;27.00;77.40;;;;;;5055904;28;20100;-71
2023/08/22 12:10:12;;;;;;;2.10;0.75;;;27.10;77.60;;;;;;5054502;28;20025;-71
2023/08/22 12:12:38;;;;;;;2.63;1.13;;;27.20;77.70;;;;;;5052535;28;20043;-71
2023/08/22 12:15:03;;;;;;;4.13;1.25;;;27.40;78.20;;;;;;5060721;28;20024;-72
2023/08/22 12:17:31;;;;;;;2.30;0.98;;;27.50;77.30;;;;;;5062241;28;20481;-72
2023/08/22 12:19:56;;;;;;;2.35;1.38;;;27.60;77.60;;;;;;5057871;28;20047;-72
2023/08/22 12:22:22;;;;;;;3.25;1.67;;;27.70;77.40;;;;;;5051078;28;20624;-72
2023/08/22 12:24:49;;;;;;;5.93;2.13;;;27.70;77.10;;;;;;5060057;28;20099;-72
2023/08/22 12:27:14;;;;;;;3.90;2.42;;;27.70;77.00;;;;;;5059648;28;20404;-72
2023/08/22 12:29:41;;;;;;;4.38;1.90;;;27.80;77.30;;;;;;5057306;28;20029;-71
2023/08/22 12:32:07;;;;;;;4.30;1.88;;;27.70;77.40;;;;;;5052145;28;20033;-71
2023/08/22 12:34:32;;;;;;;2.40;1.42;;;27.70;76.70;;;;;;5060396;28;20029;-72
2023/08/22 12:36:58;;;;;;;4.93;1.77;;;27.60;77.00;;;;;;5070250;28;20060;-71
2023/08/22 12:39:24;;;;;;;2.67;1.35;;;27.50;76.80;;;;;;5072678;28;20470;-71
2023/08/22 12:41:49;;;;;;;3.08;1.83;;;27.40;77.00;;;;;;5051615;28;20319;-72
2023/08/22 12:44:15;;;;;;;2.03;1.13;;;27.30;77.30;;;;;;5048468;28;20880;-72
2023/08/22 12:46:41;;;;;;;5.35;1.35;;;27.20;77.70;;;;;;5051325;28;20537;-71